sensor_id;sensor_type;location;lat;lon;timestamp;pressure;altitude;pressure_sealevel;temperature;humidity
48527;BME280;34317;51.660;5.824;2023-03-01T00:01:17;103069.56;;;2.90;42.42
48527;BME280;34317;51.660;5.824;2023-03-01T00:03:45;103073.00;;;2.89;42.62
48527;BME280;34317;51.660;5.824;2023-03-01T00:06:12;103065.94;;;2.85;42.53
48527;BME280;34317;51.660;5.824;2023-03-01T00:08:40;103062.41;;;2.83;42.68
48527;BME280;34317;51.660;5.824;2023-03-01T00:11:12;103067.66;;;2.83;42.54
48527;BME280;34317;51.660;5.824;2023-03-01T00:13:40;103071.09;;;2.82;42.91
48527;BME280;34317;51.660;5.824;2023-03-01T00:16:11;103071.09;;;2.82;42.73
48527;BME280;34317;51.660;5.824;2023-03-01T00:18:40;103071.09;;;2.82;42.63
48527;BME280;34317;51.660;5.824;2023-03-01T00:21:07;103069.34;;;2.81;42.82
48527;BME280;34317;51.660;5.824;2023-03-01T00:23:35;103072.00;;;2.83;42.86
48527;BME280;34317;51.660;5.824;2023-03-01T00:26:06;103064.16;;;2.84;42.76
48527;BME280;34317;51.660;5.824;2023-03-01T00:28:35;103058.94;;;2.84;42.84
48527;BME280;34317;51.660;5.824;2023-03-01T00:31:04;103059.00;;;2.87;43.00
48527;BME280;34317;51.660;5.824;2023-03-01T00:33:31;103060.78;;;2.88;43.10
48527;BME280;34317;51.660;5.824;2023-03-01T00:35:59;103061.72;;;2.90;42.87
48527;BME280;34317;51.660;5.824;2023-03-01T00:38:26;103058.22;;;2.91;42.99
48527;BME280;34317;51.660;5.824;2023-03-01T00:40:54;103053.91;;;2.93;43.01
48527;BME280;34317;51.660;5.824;2023-03-01T00:43:21;103048.72;;;2.95;43.07
48527;BME280;34317;51.660;5.824;2023-03-01T00:45:48;103052.22;;;2.96;43.01
48527;BME280;34317;51.660;5.824;2023-03-01T00:48:16;103040.88;;;2.95;42.90
48527;BME280;34317;51.660;5.824;2023-03-01T00:50:44;103051.34;;;2.95;42.93
48527;BME280;34317;51.660;5.824;2023-03-01T00:53:11;103042.59;;;2.95;42.92
48527;BME280;34317;51.660;5.824;2023-03-01T00:55:38;103039.13;;;2.94;43.01
48527;BME280;34317;51.660;5.824;2023-03-01T00:58:05;103042.56;;;2.93;43.27
48527;BME280;34317;51.660;5.824;2023-03-01T01:00:32;103036.47;;;2.92;42.98
48527;BME280;34317;51.660;5.824;2023-03-01T01:03:00;103039.91;;;2.91;42.90
48527;BME280;34317;51.660;5.824;2023-03-01T01:05:27;103046.84;;;2.89;43.02
48527;BME280;34317;51.660;5.824;2023-03-01T01:07:54;103038.97;;;2.88;43.06
48527;BME280;34317;51.660;5.824;2023-03-01T01:10:21;103031.09;;;2.86;42.96
48527;BME280;34317;51.660;5.824;2023-03-01T01:12:48;103035.38;;;2.83;43.00
48527;BME280;34317;51.660;5.824;2023-03-01T01:15:16;103025.69;;;2.80;43.13
48527;BME280;34317;51.660;5.824;2023-03-01T01:17:43;103022.16;;;2.78;42.94
48527;BME280;34317;51.660;5.824;2023-03-01T01:20:11;103020.34;;;2.74;43.12
48527;BME280;34317;51.660;5.824;2023-03-01T01:22:38;103010.69;;;2.71;43.15
48527;BME280;34317;51.660;5.824;2023-03-01T01:25:06;103013.28;;;2.70;42.95
48527;BME280;34317;51.660;5.824;2023-03-01T01:27:33;103007.13;;;2.68;43.19
48527;BME280;34317;51.660;5.824;2023-03-01T01:30:01;103000.06;;;2.65;43.30
48527;BME280;34317;51.660;5.824;2023-03-01T01:32:28;103002.69;;;2.64;43.05
48527;BME280;34317;51.660;5.824;2023-03-01T01:34:55;103007.91;;;2.64;43.39
48527;BME280;34317;51.660;5.824;2023-03-01T01:37:22;103009.56;;;2.62;43.12
48527;BME280;34317;51.660;5.824;2023-03-01T01:39:49;102995.59;;;2.60;43.39
48527;BME280;34317;51.660;5.824;2023-03-01T01:42:18;102997.28;;;2.58;43.21
48527;BME280;34317;51.660;5.824;2023-03-01T01:44:46;102990.31;;;2.57;43.41
48527;BME280;34317;51.660;5.824;2023-03-01T01:47:21;102990.22;;;2.53;43.39
48527;BME280;34317;51.660;5.824;2023-03-01T01:49:56;102991.00;;;2.49;43.32
48527;BME280;34317;51.660;5.824;2023-03-01T01:52:26;102977.84;;;2.46;43.21
48527;BME280;34317;51.660;5.824;2023-03-01T01:57:33;102976.00;;;2.42;43.29
48527;BME280;34317;51.660;5.824;2023-03-01T02:00:13;102970.69;;;2.39;43.26
48527;BME280;34317;51.660;5.824;2023-03-01T02:02:41;102974.09;;;2.35;43.12
48527;BME280;34317;51.660;5.824;2023-03-01T02:05:29;102970.50;;;2.30;43.39
48527;BME280;34317;51.660;5.824;2023-03-01T02:08:00;102975.66;;;2.27;43.52
48527;BME280;34317;51.660;5.824;2023-03-01T02:10:28;102982.59;;;2.25;43.43
48527;BME280;34317;51.660;5.824;2023-03-01T02:12:56;102979.94;;;2.23;43.60
48527;BME280;34317;51.660;5.824;2023-03-01T02:15:23;102986.03;;;2.24;43.58
48527;BME280;34317;51.660;5.824;2023-03-01T02:17:52;102979.94;;;2.23;43.66
48527;BME280;34317;51.660;5.824;2023-03-01T02:20:27;102989.50;;;2.23;43.75
48527;BME280;34317;51.660;5.824;2023-03-01T02:22:58;102984.28;;;2.23;43.79
48527;BME280;34317;51.660;5.824;2023-03-01T02:30:44;102982.44;;;2.19;43.73
48527;BME280;34317;51.660;5.824;2023-03-01T02:33:33;102974.50;;;2.16;43.56
48527;BME280;34317;51.660;5.824;2023-03-01T02:36:12;102978.81;;;2.13;43.79
48527;BME280;34317;51.660;5.824;2023-03-01T02:38:41;102967.50;;;2.13;43.71
48527;BME280;34317;51.660;5.824;2023-03-01T02:41:12;102971.81;;;2.12;43.86
48527;BME280;34317;51.660;5.824;2023-03-01T02:43:40;102965.66;;;2.10;44.06
48527;BME280;34317;51.660;5.824;2023-03-01T02:46:15;102967.41;;;2.10;43.87
48527;BME280;34317;51.660;5.824;2023-03-01T02:48:45;102968.28;;;2.10;44.06
48527;BME280;34317;51.660;5.824;2023-03-01T02:51:25;102949.16;;;2.11;44.06
48527;BME280;34317;51.660;5.824;2023-03-01T02:54:12;102960.50;;;2.12;43.94
48527;BME280;34317;51.660;5.824;2023-03-01T02:56:44;102961.38;;;2.12;43.97
48527;BME280;34317;51.660;5.824;2023-03-01T02:59:20;102971.81;;;2.12;44.02
48527;BME280;34317;51.660;5.824;2023-03-01T03:01:49;102972.69;;;2.11;44.23
48527;BME280;34317;51.660;5.824;2023-03-01T03:04:19;102968.28;;;2.10;44.09
48527;BME280;34317;51.660;5.824;2023-03-01T03:06:50;102971.75;;;2.09;44.20
48527;BME280;34317;51.660;5.824;2023-03-01T03:09:18;102973.47;;;2.07;44.13
48527;BME280;34317;51.660;5.824;2023-03-01T03:11:46;102978.69;;;2.07;44.24
48527;BME280;34317;51.660;5.824;2023-03-01T03:14:15;102972.56;;;2.07;44.30
48527;BME280;34317;51.660;5.824;2023-03-01T03:16:49;102963.00;;;2.07;44.37
48527;BME280;34317;51.660;5.824;2023-03-01T03:19:18;102968.22;;;2.07;44.30
48527;BME280;34317;51.660;5.824;2023-03-01T03:21:46;102967.38;;;2.08;44.47
48527;BME280;34317;51.660;5.824;2023-03-01T03:24:13;102957.84;;;2.10;44.42
48527;BME280;34317;51.660;5.824;2023-03-01T03:26:40;102968.28;;;2.10;44.52
48527;BME280;34317;51.660;5.824;2023-03-01T03:29:07;102967.41;;;2.10;44.57
48527;BME280;34317;51.660;5.824;2023-03-01T03:31:34;102963.06;;;2.10;44.56
48527;BME280;34317;51.660;5.824;2023-03-01T03:34:01;102967.44;;;2.11;44.56
48527;BME280;34317;51.660;5.824;2023-03-01T03:36:28;102968.31;;;2.12;44.65
48527;BME280;34317;51.660;5.824;2023-03-01T03:38:56;102968.38;;;2.13;44.74
48527;BME280;34317;51.660;5.824;2023-03-01T03:41:23;102960.56;;;2.15;44.63
48527;BME280;34317;51.660;5.824;2023-03-01T03:43:50;102958.88;;;2.17;44.77
48527;BME280;34317;51.660;5.824;2023-03-01T03:46:17;102958.91;;;2.19;44.88
48527;BME280;34317;51.660;5.824;2023-03-01T03:48:45;102957.13;;;2.18;44.86
48527;BME280;34317;51.660;5.824;2023-03-01T03:51:14;102957.19;;;2.19;44.77
48527;BME280;34317;51.660;5.824;2023-03-01T03:53:42;102948.41;;;2.17;44.61
48527;BME280;34317;51.660;5.824;2023-03-01T03:56:09;102947.50;;;2.17;44.78
48527;BME280;34317;51.660;5.824;2023-03-01T03:58:37;102947.50;;;2.17;44.89
48527;BME280;34317;51.660;5.824;2023-03-01T04:01:05;102948.41;;;2.17;44.81
48527;BME280;34317;51.660;5.824;2023-03-01T04:03:33;102949.28;;;2.18;44.90
48527;BME280;34317;51.660;5.824;2023-03-01T04:06:02;102945.75;;;2.16;44.84
48527;BME280;34317;51.660;5.824;2023-03-01T04:08:29;102938.75;;;2.14;44.84
48527;BME280;34317;51.660;5.824;2023-03-01T04:10:59;102940.53;;;2.16;44.95
48527;BME280;34317;51.660;5.824;2023-03-01T04:13:28;102934.44;;;2.15;44.70
48527;BME280;34317;51.660;5.824;2023-03-01T04:15:55;102932.66;;;2.14;44.96
48527;BME280;34317;51.660;5.824;2023-03-01T04:18:23;102931.78;;;2.13;44.97
48527;BME280;34317;51.660;5.824;2023-03-01T04:20:52;102931.69;;;2.10;44.95
48527;BME280;34317;51.660;5.824;2023-03-01T04:23:22;102929.94;;;2.09;44.83
48527;BME280;34317;51.660;5.824;2023-03-01T04:25:51;102928.16;;;2.08;45.00
48527;BME280;34317;51.660;5.824;2023-03-01T04:28:30;102924.72;;;2.09;45.04
48527;BME280;34317;51.660;5.824;2023-03-01T04:31:06;102924.72;;;2.09;45.06
48527;BME280;34317;51.660;5.824;2023-03-01T04:33:45;102914.25;;;2.09;45.07
48527;BME280;34317;51.660;5.824;2023-03-01T04:36:15;102912.47;;;2.08;44.97
48527;BME280;34317;51.660;5.824;2023-03-01T04:38:43;102910.72;;;2.07;44.85
48527;BME280;34317;51.660;5.824;2023-03-01T04:41:16;102907.16;;;2.05;45.13
48527;BME280;34317;51.660;5.824;2023-03-01T04:43:44;102908.03;;;2.04;45.11
48527;BME280;34317;51.660;5.824;2023-03-01T04:46:14;102908.88;;;2.03;45.11
48527;BME280;34317;51.660;5.824;2023-03-01T04:48:43;102907.16;;;2.04;45.10
48527;BME280;34317;51.660;5.824;2023-03-01T04:51:11;102909.78;;;2.05;45.19
48527;BME280;34317;51.660;5.824;2023-03-01T04:53:43;102908.88;;;2.03;45.16
48527;BME280;34317;51.660;5.824;2023-03-01T04:56:11;102906.19;;;2.00;45.08
48527;BME280;34317;51.660;5.824;2023-03-01T04:58:40;102900.06;;;1.98;45.08
48527;BME280;34317;51.660;5.824;2023-03-01T05:01:12;102899.97;;;1.95;45.43
48527;BME280;34317;51.660;5.824;2023-03-01T05:03:44;102903.38;;;1.91;45.14
48527;BME280;34317;51.660;5.824;2023-03-01T05:06:12;102898.97;;;1.90;45.24
48527;BME280;34317;51.660;5.824;2023-03-01T05:08:40;102899.84;;;1.89;45.29
48527;BME280;34317;51.660;5.824;2023-03-01T05:11:09;102897.22;;;1.89;45.42
48527;BME280;34317;51.660;5.824;2023-03-01T05:13:37;102892.81;;;1.88;45.31
48527;BME280;34317;51.660;5.824;2023-03-01T05:16:05;102894.59;;;1.89;45.65
48527;BME280;34317;51.660;5.824;2023-03-01T05:18:33;102891.13;;;1.90;45.41
48527;BME280;34317;51.660;5.824;2023-03-01T05:21:04;102894.66;;;1.92;45.52
48527;BME280;34317;51.660;5.824;2023-03-01T05:23:33;102879.91;;;1.94;45.59
48527;BME280;34317;51.660;5.824;2023-03-01T05:26:01;102880.84;;;1.96;45.41
48527;BME280;34317;51.660;5.824;2023-03-01T05:28:29;102882.59;;;1.97;45.46
48527;BME280;34317;51.660;5.824;2023-03-01T05:30:57;102873.94;;;1.98;45.60
48527;BME280;34317;51.660;5.824;2023-03-01T05:33:26;102868.69;;;1.98;45.62
48527;BME280;34317;51.660;5.824;2023-03-01T05:35:53;102866.97;;;1.99;45.68
48527;BME280;34317;51.660;5.824;2023-03-01T05:38:21;102868.69;;;1.98;45.59
48527;BME280;34317;51.660;5.824;2023-03-01T05:40:49;102858.25;;;1.98;45.59
48527;BME280;34317;51.660;5.824;2023-03-01T05:43:16;102865.22;;;1.99;45.42
48527;BME280;34317;51.660;5.824;2023-03-01T05:45:44;102861.78;;;2.00;45.54
48527;BME280;34317;51.660;5.824;2023-03-01T05:48:12;102860.00;;;1.99;45.32
48527;BME280;34317;51.660;5.824;2023-03-01T05:50:43;102853.03;;;1.98;45.65
48527;BME280;34317;51.660;5.824;2023-03-01T05:53:12;102856.47;;;1.97;45.46
48527;BME280;34317;51.660;5.824;2023-03-01T05:55:40;102862.50;;;1.94;45.58
48527;BME280;34317;51.660;5.824;2023-03-01T05:58:10;102863.31;;;1.92;45.48
48527;BME280;34317;51.660;5.824;2023-03-01T06:00:38;102870.22;;;1.90;45.55
48527;BME280;34317;51.660;5.824;2023-03-01T06:03:05;102866.69;;;1.88;45.65
48527;BME280;34317;51.660;5.824;2023-03-01T06:05:32;102871.94;;;1.88;45.62
48527;BME280;34317;51.660;5.824;2023-03-01T06:08:00;102869.31;;;1.88;45.56
48527;BME280;34317;51.660;5.824;2023-03-01T06:10:28;102868.41;;;1.86;45.52
48527;BME280;34317;51.660;5.824;2023-03-01T06:12:55;102871.00;;;1.86;45.55
48527;BME280;34317;51.660;5.824;2023-03-01T06:15:23;102859.63;;;1.84;45.57
48527;BME280;34317;51.660;5.824;2023-03-01T06:17:50;102868.31;;;1.83;45.68
48527;BME280;34317;51.660;5.824;2023-03-01T06:20:20;102870.91;;;1.83;45.85
48527;BME280;34317;51.660;5.824;2023-03-01T06:22:48;102871.78;;;1.82;46.18
48527;BME280;34317;51.660;5.824;2023-03-01T06:25:18;102870.91;;;1.83;45.90
48527;BME280;34317;51.660;5.824;2023-03-01T06:27:46;102873.53;;;1.83;45.97
48527;BME280;34317;51.660;5.824;2023-03-01T06:30:15;102870.09;;;1.84;46.23
48527;BME280;34317;51.660;5.824;2023-03-01T06:32:42;102863.09;;;1.83;46.03
48527;BME280;34317;51.660;5.824;2023-03-01T06:35:11;102867.47;;;1.84;46.11
48527;BME280;34317;51.660;5.824;2023-03-01T06:37:39;102864.88;;;1.84;45.97
48527;BME280;34317;51.660;5.824;2023-03-01T06:40:07;102865.75;;;1.84;46.27
48527;BME280;34317;51.660;5.824;2023-03-01T06:42:35;102875.41;;;1.87;46.15
48527;BME280;34317;51.660;5.824;2023-03-01T06:45:04;102870.19;;;1.87;46.19
48527;BME280;34317;51.660;5.824;2023-03-01T06:47:33;102867.56;;;1.88;46.02
48527;BME280;34317;51.660;5.824;2023-03-01T06:50:01;102869.34;;;1.89;46.16
48527;BME280;34317;51.660;5.824;2023-03-01T06:52:28;102861.56;;;1.91;46.32
48527;BME280;34317;51.660;5.824;2023-03-01T06:54:56;102865.00;;;1.90;46.20
48527;BME280;34317;51.660;5.824;2023-03-01T06:57:23;102859.78;;;1.90;46.40
48527;BME280;34317;51.660;5.824;2023-03-01T06:59:50;102858.03;;;1.89;46.18
48527;BME280;34317;51.660;5.824;2023-03-01T07:02:17;102858.03;;;1.89;46.08
48527;BME280;34317;51.660;5.824;2023-03-01T07:04:45;102861.59;;;1.94;46.48
48527;BME280;34317;51.660;5.824;2023-03-01T07:07:12;102856.47;;;1.97;46.36
48527;BME280;34317;51.660;5.824;2023-03-01T07:09:39;102860.06;;;2.02;46.46
48527;BME280;34317;51.660;5.824;2023-03-01T07:12:06;102866.31;;;2.07;46.54
48527;BME280;34317;51.660;5.824;2023-03-01T07:14:33;102862.03;;;2.12;46.55
48527;BME280;34317;51.660;5.824;2023-03-01T07:17:00;102868.25;;;2.18;46.71
48527;BME280;34317;51.660;5.824;2023-03-01T07:19:27;102864.91;;;2.23;46.65
48527;BME280;34317;51.660;5.824;2023-03-01T07:21:54;102860.69;;;2.30;47.04
48527;BME280;34317;51.660;5.824;2023-03-01T07:24:23;102870.47;;;2.39;47.09
48527;BME280;34317;51.660;5.824;2023-03-01T07:26:51;102874.94;;;2.44;46.79
48527;BME280;34317;51.660;5.824;2023-03-01T07:29:18;102873.31;;;2.49;46.97
48527;BME280;34317;51.660;5.824;2023-03-01T07:31:45;102882.19;;;2.58;46.86
48527;BME280;34317;51.660;5.824;2023-03-01T07:34:12;102878.78;;;2.62;46.76
48527;BME280;34317;51.660;5.824;2023-03-01T07:36:39;102884.16;;;2.68;46.81
48527;BME280;34317;51.660;5.824;2023-03-01T07:39:10;102878.97;;;2.71;46.79
48527;BME280;34317;51.660;5.824;2023-03-01T07:41:38;102867.75;;;2.75;46.72
48527;BME280;34317;51.660;5.824;2023-03-01T07:44:05;102869.59;;;2.81;46.93
48527;BME280;34317;51.660;5.824;2023-03-01T07:46:32;102872.31;;;2.85;46.97
48527;BME280;34317;51.660;5.824;2023-03-01T07:48:59;102870.66;;;2.90;46.97
48527;BME280;34317;51.660;5.824;2023-03-01T07:51:27;102872.47;;;2.95;46.90
48527;BME280;34317;51.660;5.824;2023-03-01T07:53:54;102876.94;;;3.00;47.00
48527;BME280;34317;51.660;5.824;2023-03-01T07:56:21;102879.63;;;3.05;47.07
48527;BME280;34317;51.660;5.824;2023-03-01T07:58:49;102874.53;;;3.11;47.22
48527;BME280;34317;51.660;5.824;2023-03-01T08:01:19;102883.34;;;3.16;47.26
48527;BME280;34317;51.660;5.824;2023-03-01T08:03:46;102874.72;;;3.20;46.94
48527;BME280;34317;51.660;5.824;2023-03-01T08:06:16;102876.53;;;3.24;47.32
48527;BME280;34317;51.660;5.824;2023-03-01T08:08:44;102873.09;;;3.28;47.14
48527;BME280;34317;51.660;5.824;2023-03-01T08:11:13;102880.16;;;3.33;47.22
48527;BME280;34317;51.660;5.824;2023-03-01T08:13:42;102880.25;;;3.39;47.37
48527;BME280;34317;51.660;5.824;2023-03-01T08:16:12;102880.31;;;3.42;47.41
48527;BME280;34317;51.660;5.824;2023-03-01T08:18:39;102872.56;;;3.48;47.47
48527;BME280;34317;51.660;5.824;2023-03-01T08:21:12;102871.81;;;3.55;47.83
48527;BME280;34317;51.660;5.824;2023-03-01T08:23:40;102868.44;;;3.62;47.91
48527;BME280;34317;51.660;5.824;2023-03-01T08:26:17;102873.84;;;3.72;47.59
48527;BME280;34317;51.660;5.824;2023-03-01T08:28:46;102869.59;;;3.80;47.78
48527;BME280;34317;51.660;5.824;2023-03-01T08:31:20;102866.25;;;3.88;47.82
48527;BME280;34317;51.660;5.824;2023-03-01T08:33:50;102860.25;;;3.97;47.89
48527;BME280;34317;51.660;5.824;2023-03-01T08:36:27;102865.63;;;4.06;47.89
48527;BME280;34317;51.660;5.824;2023-03-01T08:38:55;102857.91;;;4.16;47.72
48527;BME280;34317;51.660;5.824;2023-03-01T08:41:23;102854.53;;;4.24;47.69
48527;BME280;34317;51.660;5.824;2023-03-01T08:43:50;102845.03;;;4.34;47.74
48527;BME280;34317;51.660;5.824;2023-03-01T08:46:17;102839.91;;;4.43;47.79
48527;BME280;34317;51.660;5.824;2023-03-01T08:48:44;102840.91;;;4.53;47.67
48527;BME280;34317;51.660;5.824;2023-03-01T08:51:14;102841.91;;;4.63;47.64
48527;BME280;34317;51.660;5.824;2023-03-01T08:53:44;102840.28;;;4.74;47.86
48527;BME280;34317;51.660;5.824;2023-03-01T08:56:12;102833.41;;;4.85;47.70
48527;BME280;34317;51.660;5.824;2023-03-01T08:58:39;102828.25;;;4.95;47.59
48527;BME280;34317;51.660;5.824;2023-03-01T09:01:11;102838.00;;;5.06;47.44
48527;BME280;34317;51.660;5.824;2023-03-01T09:03:38;102839.00;;;5.16;47.43
48527;BME280;34317;51.660;5.824;2023-03-01T09:06:06;102844.34;;;5.25;47.44
48527;BME280;34317;51.660;5.824;2023-03-01T09:08:35;102835.66;;;5.36;47.15
48527;BME280;34317;51.660;5.824;2023-03-01T09:11:05;102837.47;;;5.46;47.12
48527;BME280;34317;51.660;5.824;2023-03-01T09:13:32;102841.06;;;5.57;46.92
48527;BME280;34317;51.660;5.824;2023-03-01T09:16:04;102829.75;;;5.66;46.67
48527;BME280;34317;51.660;5.824;2023-03-01T09:18:33;102829.84;;;5.75;46.44
48527;BME280;34317;51.660;5.824;2023-03-01T09:21:06;102834.28;;;5.84;46.40
48527;BME280;34317;51.660;5.824;2023-03-01T09:23:45;102826.44;;;5.93;46.62
48527;BME280;34317;51.660;5.824;2023-03-01T09:26:15;102825.66;;;6.03;46.43
48527;BME280;34317;51.660;5.824;2023-03-01T09:28:46;102820.47;;;6.13;46.21
48527;BME280;34317;51.660;5.824;2023-03-01T09:31:14;102817.00;;;6.23;45.94
48527;BME280;34317;51.660;5.824;2023-03-01T09:33:42;102813.53;;;6.30;46.01
48527;BME280;34317;51.660;5.824;2023-03-01T09:36:15;102813.56;;;6.39;45.41
48527;BME280;34317;51.660;5.824;2023-03-01T09:38:43;102811.84;;;6.48;45.79
48527;BME280;34317;51.660;5.824;2023-03-01T09:43:50;102807.53;;;6.68;45.35
48527;BME280;34317;51.660;5.824;2023-03-01T09:46:25;102803.16;;;6.76;44.33
48527;BME280;34317;51.660;5.824;2023-03-01T09:49:12;102798.78;;;6.81;44.22
48527;BME280;34317;51.660;5.824;2023-03-01T09:51:41;102799.66;;;6.83;43.47
48527;BME280;34317;51.660;5.824;2023-03-01T09:54:09;102796.16;;;6.88;43.80
48527;BME280;34317;51.660;5.824;2023-03-01T09:56:41;102794.41;;;6.90;43.41
48527;BME280;34317;51.660;5.824;2023-03-01T10:04:44;102780.38;;;7.06;43.31
48527;BME280;34317;51.660;5.824;2023-03-01T10:07:27;102788.28;;;7.14;43.53
48527;BME280;34317;51.660;5.824;2023-03-01T10:09:57;102778.63;;;7.20;43.41
48527;BME280;34317;51.660;5.824;2023-03-01T10:12:33;102770.72;;;7.28;43.38
48527;BME280;34317;51.660;5.824;2023-03-01T10:15:24;102764.56;;;7.37;43.23
48527;BME280;34317;51.660;5.824;2023-03-01T10:18:09;102754.03;;;7.43;42.85
48527;BME280;34317;51.660;5.824;2023-03-01T10:20:46;102758.41;;;7.49;42.90
48527;BME280;34317;51.660;5.824;2023-03-01T10:23:15;102748.72;;;7.52;42.76
48527;BME280;34317;51.660;5.824;2023-03-01T10:25:50;102746.09;;;7.55;42.75
48527;BME280;34317;51.660;5.824;2023-03-01T10:31:24;102734.66;;;7.66;42.53
48527;BME280;34317;51.660;5.824;2023-03-01T10:33:56;102739.91;;;7.72;42.63
48527;BME280;34317;51.660;5.824;2023-03-01T10:36:25;102729.31;;;7.79;42.80
48527;BME280;34317;51.660;5.824;2023-03-01T10:38:55;102738.09;;;7.86;42.25
48527;BME280;34317;51.660;5.824;2023-03-01T10:41:25;102731.94;;;7.92;42.03
48527;BME280;34317;51.660;5.824;2023-03-01T10:43:58;102728.41;;;7.96;41.77
48527;BME280;34317;51.660;5.824;2023-03-01T10:46:36;102725.75;;;8.01;41.91
48527;BME280;34317;51.660;5.824;2023-03-01T10:49:21;102719.56;;;8.05;41.76
48527;BME280;34317;51.660;5.824;2023-03-01T10:51:51;102716.03;;;8.06;41.56
48527;BME280;34317;51.660;5.824;2023-03-01T10:54:20;102723.94;;;8.12;41.68
48527;BME280;34317;51.660;5.824;2023-03-01T10:56:48;102724.78;;;8.15;41.38
48527;BME280;34317;51.660;5.824;2023-03-01T10:59:24;102724.78;;;8.18;40.74
48527;BME280;34317;51.660;5.824;2023-03-01T11:07:49;102720.31;;;8.31;41.35
48527;BME280;34317;51.660;5.824;2023-03-01T11:10:36;102724.69;;;8.42;41.34
48527;BME280;34317;51.660;5.824;2023-03-01T11:13:16;102731.69;;;8.47;41.06
48527;BME280;34317;51.660;5.824;2023-03-01T11:15:59;102727.28;;;8.54;41.47
48527;BME280;34317;51.660;5.824;2023-03-01T11:18:30;102724.56;;;8.62;40.98
48527;BME280;34317;51.660;5.824;2023-03-01T11:21:15;102720.16;;;8.68;41.24
48527;BME280;34317;51.660;5.824;2023-03-01T11:23:43;102713.03;;;8.73;41.28
48527;BME280;34317;51.660;5.824;2023-03-01T11:26:15;102711.25;;;8.82;40.57
48527;BME280;34317;51.660;5.824;2023-03-01T11:28:49;102698.88;;;8.84;40.71
48527;BME280;34317;51.660;5.824;2023-03-01T11:31:18;102709.41;;;8.87;40.09
48527;BME280;34317;51.660;5.824;2023-03-01T11:33:56;102700.56;;;8.91;40.06
48527;BME280;34317;51.660;5.824;2023-03-01T11:36:49;102697.06;;;8.92;40.22
48527;BME280;34317;51.660;5.824;2023-03-01T11:39:27;102710.22;;;8.96;39.88
48527;BME280;34317;51.660;5.824;2023-03-01T11:42:14;102709.34;;;8.99;39.26
48527;BME280;34317;51.660;5.824;2023-03-01T11:44:49;102707.56;;;9.01;39.16
48527;BME280;34317;51.660;5.824;2023-03-01T11:47:28;102708.41;;;9.03;39.68
48527;BME280;34317;51.660;5.824;2023-03-01T11:50:15;102707.47;;;9.10;39.65
48527;BME280;34317;51.660;5.824;2023-03-01T11:55:46;102700.34;;;9.19;39.60
48527;BME280;34317;51.660;5.824;2023-03-01T12:12:45;102677.13;;;9.48;38.91
48527;BME280;34317;51.660;5.824;2023-03-01T12:15:33;102677.97;;;9.53;39.05
48527;BME280;34317;51.660;5.824;2023-03-01T12:18:37;102678.75;;;9.59;39.37
48527;BME280;34317;51.660;5.824;2023-03-01T12:21:40;102676.94;;;9.67;39.29
48527;BME280;34317;51.660;5.824;2023-03-01T12:30:16;102659.97;;;9.83;38.09
48527;BME280;34317;51.660;5.824;2023-03-01T12:38:39;102651.09;;;9.87;38.03
48527;BME280;34317;51.660;5.824;2023-03-01T12:41:21;102648.34;;;9.93;37.62
48527;BME280;34317;51.660;5.824;2023-03-01T12:44:04;102646.53;;;9.99;37.76
48527;BME280;34317;51.660;5.824;2023-03-01T12:51:56;102642.84;;;10.09;37.16
48527;BME280;34317;51.660;5.824;2023-03-01T12:54:30;102632.16;;;10.15;37.37
48527;BME280;34317;51.660;5.824;2023-03-01T13:00:10;102616.03;;;10.33;37.54
48527;BME280;34317;51.660;5.824;2023-03-01T13:05:50;102607.09;;;10.41;37.35
48527;BME280;34317;51.660;5.824;2023-03-01T13:08:29;102610.56;;;10.46;37.40
48527;BME280;34317;51.660;5.824;2023-03-01T13:11:05;102612.25;;;10.50;36.95
48527;BME280;34317;51.660;5.824;2023-03-01T13:13:33;102598.06;;;10.54;37.14
48527;BME280;34317;51.660;5.824;2023-03-01T13:19:10;102597.91;;;10.63;36.93
48527;BME280;34317;51.660;5.824;2023-03-01T13:21:39;102593.44;;;10.67;36.77
48527;BME280;34317;51.660;5.824;2023-03-01T13:27:22;102580.91;;;10.75;36.72
48527;BME280;34317;51.660;5.824;2023-03-01T13:29:58;102571.09;;;10.80;36.62
48527;BME280;34317;51.660;5.824;2023-03-01T13:32:34;102571.06;;;10.83;36.34
48527;BME280;34317;51.660;5.824;2023-03-01T13:37:42;102555.09;;;10.85;36.03
48527;BME280;34317;51.660;5.824;2023-03-01T13:42:48;102549.75;;;10.88;35.78
48527;BME280;34317;51.660;5.824;2023-03-01T13:45:40;102530.38;;;10.86;35.54
48527;BME280;34317;51.660;5.824;2023-03-01T13:48:16;102536.53;;;10.86;35.69
48527;BME280;34317;51.660;5.824;2023-03-01T13:50:50;102532.06;;;10.88;35.64
48527;BME280;34317;51.660;5.824;2023-03-01T13:53:19;102526.69;;;10.93;35.72
48527;BME280;34317;51.660;5.824;2023-03-01T13:56:00;102523.94;;;10.98;35.75
48527;BME280;34317;51.660;5.824;2023-03-01T13:58:31;102526.53;;;11.02;35.78
48527;BME280;34317;51.660;5.824;2023-03-01T14:01:04;102514.03;;;11.07;35.62
48527;BME280;34317;51.660;5.824;2023-03-01T14:03:33;102515.72;;;11.12;35.52
48527;BME280;34317;51.660;5.824;2023-03-01T14:06:15;102512.09;;;11.16;35.68
48527;BME280;34317;51.660;5.824;2023-03-01T14:08:49;102501.34;;;11.22;35.11
48527;BME280;34317;51.660;5.824;2023-03-01T14:19:26;102499.41;;;11.30;35.15
48527;BME280;34317;51.660;5.824;2023-03-01T14:25:15;102490.41;;;11.37;34.88
48527;BME280;34317;51.660;5.824;2023-03-01T14:27:44;102490.41;;;11.37;34.49
48527;BME280;34317;51.660;5.824;2023-03-01T14:30:17;102486.94;;;11.35;34.40
48527;BME280;34317;51.660;5.824;2023-03-01T14:32:57;102478.97;;;11.35;34.83
48527;BME280;34317;51.660;5.824;2023-03-01T14:35:34;102487.72;;;11.40;34.73
48527;BME280;34317;51.660;5.824;2023-03-01T14:38:02;102479.69;;;11.43;34.76
48527;BME280;34317;51.660;5.824;2023-03-01T14:40:35;102477.78;;;11.48;34.80
48527;BME280;34317;51.660;5.824;2023-03-01T14:43:10;102479.41;;;11.56;34.29
48527;BME280;34317;51.660;5.824;2023-03-01T14:45:37;102468.78;;;11.56;33.97
48527;BME280;34317;51.660;5.824;2023-03-01T14:48:05;102468.84;;;11.53;33.80